sensor_id;sensor_type;location;lat;lon;timestamp;P1;durP1;ratioP1;P2;durP2;ratioP2
48205;SDS011;33995;48.202;16.260;2023-03-01T00:02:09;23.40;;;18.50;;
48205;SDS011;33995;48.202;16.260;2023-03-01T00:04:39;22.57;;;17.80;;
48205;SDS011;33995;48.202;16.260;2023-03-01T00:07:08;23.97;;;18.27;;
48205;SDS011;33995;48.202;16.260;2023-03-01T00:09:38;21.77;;;17.80;;
48205;SDS011;33995;48.202;16.260;2023-03-01T00:12:06;21.37;;;16.90;;
48205;SDS011;33995;48.202;16.260;2023-03-01T00:14:39;20.97;;;16.77;;
48205;SDS011;33995;48.202;16.260;2023-03-01T00:17:09;22.10;;;17.20;;
48205;SDS011;33995;48.202;16.260;2023-03-01T00:19:37;20.83;;;16.40;;
48205;SDS011;33995;48.202;16.260;2023-03-01T00:22:04;21.37;;;17.30;;
48205;SDS011;33995;48.202;16.260;2023-03-01T00:24:36;21.90;;;17.33;;
48205;SDS011;33995;48.202;16.260;2023-03-01T00:27:05;22.77;;;18.13;;
48205;SDS011;33995;48.202;16.260;2023-03-01T00:29:36;24.30;;;18.60;;
48205;SDS011;33995;48.202;16.260;2023-03-01T00:32:05;25.37;;;18.43;;
48205;SDS011;33995;48.202;16.260;2023-03-01T00:34:35;27.17;;;18.97;;
48205;SDS011;33995;48.202;16.260;2023-03-01T00:37:08;23.30;;;18.10;;
48205;SDS011;33995;48.202;16.260;2023-03-01T00:39:35;22.90;;;17.73;;
48205;SDS011;33995;48.202;16.260;2023-03-01T00:42:06;24.33;;;18.10;;
48205;SDS011;33995;48.202;16.260;2023-03-01T00:44:35;22.07;;;17.40;;
48205;SDS011;33995;48.202;16.260;2023-03-01T00:47:07;22.90;;;17.47;;
48205;SDS011;33995;48.202;16.260;2023-03-01T00:49:36;23.67;;;18.10;;
48205;SDS011;33995;48.202;16.260;2023-03-01T00:52:05;23.87;;;18.37;;
48205;SDS011;33995;48.202;16.260;2023-03-01T00:54:35;21.27;;;16.37;;
48205;SDS011;33995;48.202;16.260;2023-03-01T00:57:05;23.83;;;17.20;;
48205;SDS011;33995;48.202;16.260;2023-03-01T00:59:37;20.23;;;17.33;;
48205;SDS011;33995;48.202;16.260;2023-03-01T01:02:07;21.13;;;16.70;;
48205;SDS011;33995;48.202;16.260;2023-03-01T01:04:38;23.40;;;17.43;;
48205;SDS011;33995;48.202;16.260;2023-03-01T01:07:08;21.67;;;17.03;;
48205;SDS011;33995;48.202;16.260;2023-03-01T01:09:39;22.33;;;17.03;;
48205;SDS011;33995;48.202;16.260;2023-03-01T01:12:10;21.30;;;16.57;;
48205;SDS011;33995;48.202;16.260;2023-03-01T01:14:37;21.90;;;17.50;;
48205;SDS011;33995;48.202;16.260;2023-03-01T01:17:09;25.50;;;17.73;;
48205;SDS011;33995;48.202;16.260;2023-03-01T01:19:40;23.97;;;17.83;;
48205;SDS011;33995;48.202;16.260;2023-03-01T01:22:12;25.50;;;17.47;;
48205;SDS011;33995;48.202;16.260;2023-03-01T01:24:44;22.60;;;17.77;;
48205;SDS011;33995;48.202;16.260;2023-03-01T01:27:15;23.87;;;18.07;;
48205;SDS011;33995;48.202;16.260;2023-03-01T01:29:47;22.07;;;17.10;;
48205;SDS011;33995;48.202;16.260;2023-03-01T01:32:14;23.77;;;17.03;;
48205;SDS011;33995;48.202;16.260;2023-03-01T01:34:42;22.27;;;18.03;;
48205;SDS011;33995;48.202;16.260;2023-03-01T01:37:13;22.97;;;17.93;;
48205;SDS011;33995;48.202;16.260;2023-03-01T01:39:44;24.10;;;17.63;;
48205;SDS011;33995;48.202;16.260;2023-03-01T01:42:17;23.53;;;17.87;;
48205;SDS011;33995;48.202;16.260;2023-03-01T01:44:45;23.60;;;18.17;;
48205;SDS011;33995;48.202;16.260;2023-03-01T01:47:18;23.37;;;17.77;;
48205;SDS011;33995;48.202;16.260;2023-03-01T01:49:53;23.20;;;17.30;;
48205;SDS011;33995;48.202;16.260;2023-03-01T01:55:11;21.30;;;16.03;;
48205;SDS011;33995;48.202;16.260;2023-03-01T01:57:55;22.27;;;16.73;;
48205;SDS011;33995;48.202;16.260;2023-03-01T02:00:27;23.00;;;17.37;;
48205;SDS011;33995;48.202;16.260;2023-03-01T02:02:59;21.10;;;16.83;;
48205;SDS011;33995;48.202;16.260;2023-03-01T02:08:42;21.63;;;16.70;;
48205;SDS011;33995;48.202;16.260;2023-03-01T02:11:16;21.03;;;16.90;;
48205;SDS011;33995;48.202;16.260;2023-03-01T02:13:48;20.10;;;16.37;;
48205;SDS011;33995;48.202;16.260;2023-03-01T02:16:20;19.83;;;15.93;;
48205;SDS011;33995;48.202;16.260;2023-03-01T02:18:51;22.40;;;16.87;;
48205;SDS011;33995;48.202;16.260;2023-03-01T02:27:11;21.17;;;16.83;;
48205;SDS011;33995;48.202;16.260;2023-03-01T02:29:44;21.70;;;17.00;;
48205;SDS011;33995;48.202;16.260;2023-03-01T02:32:14;20.90;;;17.23;;
48205;SDS011;33995;48.202;16.260;2023-03-01T02:34:54;21.50;;;18.07;;
48205;SDS011;33995;48.202;16.260;2023-03-01T02:37:23;21.67;;;16.93;;
48205;SDS011;33995;48.202;16.260;2023-03-01T02:39:58;22.80;;;17.37;;
48205;SDS011;33995;48.202;16.260;2023-03-01T02:42:36;20.47;;;16.00;;
48205;SDS011;33995;48.202;16.260;2023-03-01T02:45:15;22.93;;;17.90;;
48205;SDS011;33995;48.202;16.260;2023-03-01T02:47:50;23.93;;;18.03;;
48205;SDS011;33995;48.202;16.260;2023-03-01T02:53:35;22.93;;;17.63;;
48205;SDS011;33995;48.202;16.260;2023-03-01T02:56:14;21.30;;;17.60;;
48205;SDS011;33995;48.202;16.260;2023-03-01T02:58:46;23.63;;;17.63;;
48205;SDS011;33995;48.202;16.260;2023-03-01T03:01:21;23.07;;;17.33;;
48205;SDS011;33995;48.202;16.260;2023-03-01T03:04:08;22.10;;;17.60;;
48205;SDS011;33995;48.202;16.260;2023-03-01T03:06:41;22.93;;;17.67;;
48205;SDS011;33995;48.202;16.260;2023-03-01T03:09:16;20.33;;;16.97;;
48205;SDS011;33995;48.202;16.260;2023-03-01T03:11:46;22.77;;;17.70;;
48205;SDS011;33995;48.202;16.260;2023-03-01T03:14:17;22.60;;;17.60;;
48205;SDS011;33995;48.202;16.260;2023-03-01T03:16:48;21.53;;;17.37;;
48205;SDS011;33995;48.202;16.260;2023-03-01T03:19:17;21.80;;;17.80;;
48205;SDS011;33995;48.202;16.260;2023-03-01T03:21:46;23.17;;;18.13;;
48205;SDS011;33995;48.202;16.260;2023-03-01T03:24:14;21.87;;;17.53;;
48205;SDS011;33995;48.202;16.260;2023-03-01T03:26:44;22.87;;;18.23;;
48205;SDS011;33995;48.202;16.260;2023-03-01T03:29:15;20.60;;;17.27;;
48205;SDS011;33995;48.202;16.260;2023-03-01T03:31:42;22.00;;;17.30;;
48205;SDS011;33995;48.202;16.260;2023-03-01T03:34:12;23.20;;;18.03;;
48205;SDS011;33995;48.202;16.260;2023-03-01T03:36:45;22.13;;;17.97;;
48205;SDS011;33995;48.202;16.260;2023-03-01T03:39:15;22.83;;;18.00;;
48205;SDS011;33995;48.202;16.260;2023-03-01T03:41:46;20.70;;;17.60;;
48205;SDS011;33995;48.202;16.260;2023-03-01T03:44:16;21.03;;;17.90;;
48205;SDS011;33995;48.202;16.260;2023-03-01T03:46:46;21.07;;;16.57;;
48205;SDS011;33995;48.202;16.260;2023-03-01T03:49:17;22.70;;;17.37;;
48205;SDS011;33995;48.202;16.260;2023-03-01T03:51:48;19.13;;;16.40;;
48205;SDS011;33995;48.202;16.260;2023-03-01T03:54:18;21.60;;;16.87;;
48205;SDS011;33995;48.202;16.260;2023-03-01T03:56:47;20.17;;;16.17;;
48205;SDS011;33995;48.202;16.260;2023-03-01T03:59:16;22.30;;;17.77;;
48205;SDS011;33995;48.202;16.260;2023-03-01T04:01:45;21.27;;;17.00;;
48205;SDS011;33995;48.202;16.260;2023-03-01T04:04:13;20.57;;;16.30;;
48205;SDS011;33995;48.202;16.260;2023-03-01T04:06:44;22.47;;;17.70;;
48205;SDS011;33995;48.202;16.260;2023-03-01T04:09:11;22.27;;;17.27;;
48205;SDS011;33995;48.202;16.260;2023-03-01T04:11:41;23.17;;;17.30;;
48205;SDS011;33995;48.202;16.260;2023-03-01T04:14:11;23.03;;;17.30;;
48205;SDS011;33995;48.202;16.260;2023-03-01T04:16:42;22.50;;;17.30;;
48205;SDS011;33995;48.202;16.260;2023-03-01T04:19:14;22.70;;;17.07;;
48205;SDS011;33995;48.202;16.260;2023-03-01T04:21:44;23.93;;;17.80;;
48205;SDS011;33995;48.202;16.260;2023-03-01T04:24:17;20.53;;;17.17;;
48205;SDS011;33995;48.202;16.260;2023-03-01T04:26:48;20.77;;;16.97;;
48205;SDS011;33995;48.202;16.260;2023-03-01T04:29:16;21.10;;;16.40;;
48205;SDS011;33995;48.202;16.260;2023-03-01T04:31:51;20.73;;;17.00;;
48205;SDS011;33995;48.202;16.260;2023-03-01T04:34:21;22.40;;;17.23;;
48205;SDS011;33995;48.202;16.260;2023-03-01T04:36:53;22.47;;;17.13;;
48205;SDS011;33995;48.202;16.260;2023-03-01T04:39:23;20.93;;;16.97;;
48205;SDS011;33995;48.202;16.260;2023-03-01T04:41:50;22.40;;;16.80;;
48205;SDS011;33995;48.202;16.260;2023-03-01T04:44:19;22.80;;;17.67;;
48205;SDS011;33995;48.202;16.260;2023-03-01T04:46:48;21.57;;;17.20;;
48205;SDS011;33995;48.202;16.260;2023-03-01T04:49:18;21.90;;;17.07;;
48205;SDS011;33995;48.202;16.260;2023-03-01T04:51:47;20.70;;;17.63;;
48205;SDS011;33995;48.202;16.260;2023-03-01T04:54:14;22.20;;;17.87;;
48205;SDS011;33995;48.202;16.260;2023-03-01T04:56:45;21.40;;;17.97;;
48205;SDS011;33995;48.202;16.260;2023-03-01T04:59:14;22.50;;;17.40;;
48205;SDS011;33995;48.202;16.260;2023-03-01T05:01:43;21.33;;;17.43;;
48205;SDS011;33995;48.202;16.260;2023-03-01T05:04:14;23.17;;;17.57;;
48205;SDS011;33995;48.202;16.260;2023-03-01T05:06:44;22.40;;;18.00;;
48205;SDS011;33995;48.202;16.260;2023-03-01T05:09:15;21.00;;;17.53;;
48205;SDS011;33995;48.202;16.260;2023-03-01T05:11:46;24.27;;;18.47;;
48205;SDS011;33995;48.202;16.260;2023-03-01T05:14:16;28.57;;;21.17;;
48205;SDS011;33995;48.202;16.260;2023-03-01T05:16:45;24.87;;;19.23;;
48205;SDS011;33995;48.202;16.260;2023-03-01T05:19:16;23.43;;;18.77;;
48205;SDS011;33995;48.202;16.260;2023-03-01T05:21:49;22.30;;;17.90;;
48205;SDS011;33995;48.202;16.260;2023-03-01T05:24:35;23.57;;;18.27;;
48205;SDS011;33995;48.202;16.260;2023-03-01T05:27:06;23.30;;;17.63;;
48205;SDS011;33995;48.202;16.260;2023-03-01T05:29:36;22.33;;;18.23;;
48205;SDS011;33995;48.202;16.260;2023-03-01T05:32:09;25.43;;;18.13;;
48205;SDS011;33995;48.202;16.260;2023-03-01T05:34:51;23.93;;;18.23;;
48205;SDS011;33995;48.202;16.260;2023-03-01T05:37:20;23.67;;;18.50;;
48205;SDS011;33995;48.202;16.260;2023-03-01T05:39:49;20.97;;;18.20;;
48205;SDS011;33995;48.202;16.260;2023-03-01T05:42:18;26.73;;;20.53;;
48205;SDS011;33995;48.202;16.260;2023-03-01T05:44:47;25.83;;;19.63;;
48205;SDS011;33995;48.202;16.260;2023-03-01T05:47:15;27.50;;;20.17;;
48205;SDS011;33995;48.202;16.260;2023-03-01T05:49:43;51.27;;;33.20;;
48205;SDS011;33995;48.202;16.260;2023-03-01T05:52:10;54.73;;;33.37;;
48205;SDS011;33995;48.202;16.260;2023-03-01T05:54:39;40.33;;;27.50;;
48205;SDS011;33995;48.202;16.260;2023-03-01T05:57:12;47.50;;;29.70;;
48205;SDS011;33995;48.202;16.260;2023-03-01T05:59:45;36.07;;;25.17;;
48205;SDS011;33995;48.202;16.260;2023-03-01T06:02:15;26.43;;;20.37;;
48205;SDS011;33995;48.202;16.260;2023-03-01T06:04:42;32.20;;;21.93;;
48205;SDS011;33995;48.202;16.260;2023-03-01T06:07:13;25.50;;;19.33;;
48205;SDS011;33995;48.202;16.260;2023-03-01T06:09:43;24.23;;;18.07;;
48205;SDS011;33995;48.202;16.260;2023-03-01T06:12:15;24.67;;;18.93;;
48205;SDS011;33995;48.202;16.260;2023-03-01T06:14:46;22.47;;;18.63;;
48205;SDS011;33995;48.202;16.260;2023-03-01T06:17:19;21.90;;;18.17;;
48205;SDS011;33995;48.202;16.260;2023-03-01T06:19:49;24.47;;;19.07;;
48205;SDS011;33995;48.202;16.260;2023-03-01T06:22:19;24.37;;;19.53;;
48205;SDS011;33995;48.202;16.260;2023-03-01T06:24:49;23.90;;;19.10;;
48205;SDS011;33995;48.202;16.260;2023-03-01T06:27:19;22.63;;;19.43;;
48205;SDS011;33995;48.202;16.260;2023-03-01T06:29:52;24.17;;;20.60;;
48205;SDS011;33995;48.202;16.260;2023-03-01T06:32:22;25.90;;;20.63;;
48205;SDS011;33995;48.202;16.260;2023-03-01T06:34:57;26.17;;;20.10;;
48205;SDS011;33995;48.202;16.260;2023-03-01T06:37:28;26.43;;;20.57;;
48205;SDS011;33995;48.202;16.260;2023-03-01T06:39:55;24.33;;;20.37;;
48205;SDS011;33995;48.202;16.260;2023-03-01T06:42:22;24.30;;;20.67;;
48205;SDS011;33995;48.202;16.260;2023-03-01T06:44:51;25.57;;;21.97;;
48205;SDS011;33995;48.202;16.260;2023-03-01T06:47:20;25.23;;;21.00;;
48205;SDS011;33995;48.202;16.260;2023-03-01T06:49:52;25.13;;;21.40;;
48205;SDS011;33995;48.202;16.260;2023-03-01T06:52:23;27.40;;;21.77;;
48205;SDS011;33995;48.202;16.260;2023-03-01T06:54:53;28.43;;;22.10;;
48205;SDS011;33995;48.202;16.260;2023-03-01T06:57:23;28.10;;;22.93;;
48205;SDS011;33995;48.202;16.260;2023-03-01T06:59:53;32.20;;;23.93;;
48205;SDS011;33995;48.202;16.260;2023-03-01T07:02:25;51.37;;;41.00;;
48205;SDS011;33995;48.202;16.260;2023-03-01T07:04:55;43.70;;;35.40;;
48205;SDS011;33995;48.202;16.260;2023-03-01T07:07:24;36.70;;;28.87;;
48205;SDS011;33995;48.202;16.260;2023-03-01T07:09:56;35.30;;;26.33;;
48205;SDS011;33995;48.202;16.260;2023-03-01T07:12:25;34.53;;;26.67;;
48205;SDS011;33995;48.202;16.260;2023-03-01T07:14:52;33.63;;;26.60;;
48205;SDS011;33995;48.202;16.260;2023-03-01T07:17:23;33.00;;;24.97;;
48205;SDS011;33995;48.202;16.260;2023-03-01T07:19:53;33.10;;;24.37;;
48205;SDS011;33995;48.202;16.260;2023-03-01T07:22:22;34.17;;;27.07;;
48205;SDS011;33995;48.202;16.260;2023-03-01T07:24:50;40.83;;;29.83;;
48205;SDS011;33995;48.202;16.260;2023-03-01T07:27:21;32.20;;;27.40;;
48205;SDS011;33995;48.202;16.260;2023-03-01T07:29:50;31.97;;;25.40;;
48205;SDS011;33995;48.202;16.260;2023-03-01T07:32:20;32.87;;;25.70;;
48205;SDS011;33995;48.202;16.260;2023-03-01T07:34:51;34.63;;;25.47;;
48205;SDS011;33995;48.202;16.260;2023-03-01T07:37:18;31.87;;;24.70;;
48205;SDS011;33995;48.202;16.260;2023-03-01T07:39:45;33.27;;;25.57;;
48205;SDS011;33995;48.202;16.260;2023-03-01T07:42:15;30.53;;;24.07;;
48205;SDS011;33995;48.202;16.260;2023-03-01T07:44:46;31.30;;;23.77;;
48205;SDS011;33995;48.202;16.260;2023-03-01T07:47:15;30.50;;;25.10;;
48205;SDS011;33995;48.202;16.260;2023-03-01T07:49:46;36.03;;;28.30;;
48205;SDS011;33995;48.202;16.260;2023-03-01T07:52:16;30.50;;;25.20;;
48205;SDS011;33995;48.202;16.260;2023-03-01T07:54:45;32.77;;;25.57;;
48205;SDS011;33995;48.202;16.260;2023-03-01T07:57:14;29.17;;;23.93;;
48205;SDS011;33995;48.202;16.260;2023-03-01T07:59:44;32.17;;;25.17;;
48205;SDS011;33995;48.202;16.260;2023-03-01T08:02:15;30.53;;;24.73;;
48205;SDS011;33995;48.202;16.260;2023-03-01T08:04:43;38.27;;;27.17;;
48205;SDS011;33995;48.202;16.260;2023-03-01T08:07:12;36.40;;;25.63;;
48205;SDS011;33995;48.202;16.260;2023-03-01T08:09:40;31.73;;;25.80;;
48205;SDS011;33995;48.202;16.260;2023-03-01T08:12:11;32.20;;;25.53;;
48205;SDS011;33995;48.202;16.260;2023-03-01T08:14:42;34.27;;;26.33;;
48205;SDS011;33995;48.202;16.260;2023-03-01T08:17:13;32.80;;;25.80;;
48205;SDS011;33995;48.202;16.260;2023-03-01T08:19:44;35.30;;;26.13;;
48205;SDS011;33995;48.202;16.260;2023-03-01T08:22:13;35.30;;;26.17;;
48205;SDS011;33995;48.202;16.260;2023-03-01T08:24:43;32.87;;;26.63;;
48205;SDS011;33995;48.202;16.260;2023-03-01T08:27:11;34.77;;;27.00;;
48205;SDS011;33995;48.202;16.260;2023-03-01T08:29:44;38.17;;;27.73;;
48205;SDS011;33995;48.202;16.260;2023-03-01T08:32:12;33.57;;;26.80;;
48205;SDS011;33995;48.202;16.260;2023-03-01T08:34:46;37.03;;;27.93;;
48205;SDS011;33995;48.202;16.260;2023-03-01T08:37:18;34.77;;;27.70;;
48205;SDS011;33995;48.202;16.260;2023-03-01T08:39:46;35.03;;;28.20;;
48205;SDS011;33995;48.202;16.260;2023-03-01T08:42:14;38.33;;;28.37;;
48205;SDS011;33995;48.202;16.260;2023-03-01T08:44:44;37.53;;;29.13;;
48205;SDS011;33995;48.202;16.260;2023-03-01T08:47:15;36.57;;;28.47;;
48205;SDS011;33995;48.202;16.260;2023-03-01T08:49:42;37.23;;;28.23;;
48205;SDS011;33995;48.202;16.260;2023-03-01T08:52:13;36.10;;;29.30;;
48205;SDS011;33995;48.202;16.260;2023-03-01T08:54:43;34.80;;;28.07;;
48205;SDS011;33995;48.202;16.260;2023-03-01T08:57:13;35.67;;;28.53;;
48205;SDS011;33995;48.202;16.260;2023-03-01T08:59:44;34.57;;;27.03;;
48205;SDS011;33995;48.202;16.260;2023-03-01T09:02:15;35.63;;;26.73;;
48205;SDS011;33995;48.202;16.260;2023-03-01T09:04:45;35.37;;;27.60;;
48205;SDS011;33995;48.202;16.260;2023-03-01T09:07:15;32.83;;;26.13;;
48205;SDS011;33995;48.202;16.260;2023-03-01T09:09:46;33.27;;;27.07;;
48205;SDS011;33995;48.202;16.260;2023-03-01T09:12:16;36.30;;;26.40;;
48205;SDS011;33995;48.202;16.260;2023-03-01T09:14:45;35.50;;;26.33;;
48205;SDS011;33995;48.202;16.260;2023-03-01T09:17:16;30.20;;;25.03;;
48205;SDS011;33995;48.202;16.260;2023-03-01T09:19:47;29.53;;;24.87;;
48205;SDS011;33995;48.202;16.260;2023-03-01T09:22:15;32.07;;;25.63;;
48205;SDS011;33995;48.202;16.260;2023-03-01T09:24:42;31.43;;;25.47;;
48205;SDS011;33995;48.202;16.260;2023-03-01T09:27:12;30.00;;;24.93;;
48205;SDS011;33995;48.202;16.260;2023-03-01T09:29:45;26.83;;;21.77;;
48205;SDS011;33995;48.202;16.260;2023-03-01T09:32:14;28.13;;;23.80;;
48205;SDS011;33995;48.202;16.260;2023-03-01T09:34:45;28.27;;;24.60;;
48205;SDS011;33995;48.202;16.260;2023-03-01T09:37:35;29.60;;;24.00;;
48205;SDS011;33995;48.202;16.260;2023-03-01T09:40:05;29.27;;;23.93;;
48205;SDS011;33995;48.202;16.260;2023-03-01T09:42:37;28.23;;;24.10;;
48205;SDS011;33995;48.202;16.260;2023-03-01T09:45:26;28.47;;;22.73;;
48205;SDS011;33995;48.202;16.260;2023-03-01T09:48:02;29.90;;;24.27;;
48205;SDS011;33995;48.202;16.260;2023-03-01T09:50:38;27.00;;;22.80;;
48205;SDS011;33995;48.202;16.260;2023-03-01T09:53:15;26.77;;;22.13;;
48205;SDS011;33995;48.202;16.260;2023-03-01T09:56:05;28.57;;;22.47;;
48205;SDS011;33995;48.202;16.260;2023-03-01T09:59:43;29.50;;;23.53;;
48205;SDS011;33995;48.202;16.260;2023-03-01T10:02:38;28.63;;;23.20;;
48205;SDS011;33995;48.202;16.260;2023-03-01T10:17:33;30.20;;;25.23;;
48205;SDS011;33995;48.202;16.260;2023-03-01T10:20:26;32.57;;;27.00;;
48205;SDS011;33995;48.202;16.260;2023-03-01T10:23:16;27.70;;;23.50;;
48205;SDS011;33995;48.202;16.260;2023-03-01T10:26:03;26.43;;;21.83;;
48205;SDS011;33995;48.202;16.260;2023-03-01T10:31:55;25.20;;;21.23;;
48205;SDS011;33995;48.202;16.260;2023-03-01T10:36:57;24.23;;;19.97;;
48205;SDS011;33995;48.202;16.260;2023-03-01T10:42:45;25.00;;;21.03;;
48205;SDS011;33995;48.202;16.260;2023-03-01T10:45:32;22.93;;;19.73;;
48205;SDS011;33995;48.202;16.260;2023-03-01T10:50:50;24.57;;;20.63;;
48205;SDS011;33995;48.202;16.260;2023-03-01T10:53:51;22.93;;;19.40;;
48205;SDS011;33995;48.202;16.260;2023-03-01T10:56:23;24.57;;;19.73;;
48205;SDS011;33995;48.202;16.260;2023-03-01T10:59:17;25.20;;;21.40;;
48205;SDS011;33995;48.202;16.260;2023-03-01T11:02:25;25.17;;;20.93;;
48205;SDS011;33995;48.202;16.260;2023-03-01T11:05:07;25.00;;;21.17;;
48205;SDS011;33995;48.202;16.260;2023-03-01T11:10:36;22.07;;;18.80;;
48205;SDS011;33995;48.202;16.260;2023-03-01T11:13:08;24.00;;;19.33;;
48205;SDS011;33995;48.202;16.260;2023-03-01T11:16:03;22.67;;;18.40;;
48205;SDS011;33995;48.202;16.260;2023-03-01T11:18:36;18.13;;;16.10;;
48205;SDS011;33995;48.202;16.260;2023-03-01T11:21:15;19.30;;;16.90;;
48205;SDS011;33995;48.202;16.260;2023-03-01T11:23:47;20.10;;;16.30;;
48205;SDS011;33995;48.202;16.260;2023-03-01T11:26:15;18.37;;;16.07;;
48205;SDS011;33995;48.202;16.260;2023-03-01T11:28:50;19.63;;;16.80;;
48205;SDS011;33995;48.202;16.260;2023-03-01T11:31:24;21.40;;;16.77;;
48205;SDS011;33995;48.202;16.260;2023-03-01T11:34:03;19.57;;;17.13;;
48205;SDS011;33995;48.202;16.260;2023-03-01T11:36:46;19.03;;;16.20;;
48205;SDS011;33995;48.202;16.260;2023-03-01T11:42:20;20.00;;;17.87;;
48205;SDS011;33995;48.202;16.260;2023-03-01T11:45:10;21.63;;;17.40;;
48205;SDS011;33995;48.202;16.260;2023-03-01T11:51:25;20.83;;;18.17;;
48205;SDS011;33995;48.202;16.260;2023-03-01T11:57:38;21.43;;;17.77;;
48205;SDS011;33995;48.202;16.260;2023-03-01T12:00:44;21.20;;;18.37;;
48205;SDS011;33995;48.202;16.260;2023-03-01T12:09:38;20.07;;;17.90;;
48205;SDS011;33995;48.202;16.260;2023-03-01T12:13:06;23.40;;;20.03;;
48205;SDS011;33995;48.202;16.260;2023-03-01T12:15:54;23.63;;;19.27;;
48205;SDS011;33995;48.202;16.260;2023-03-01T12:21:43;20.70;;;17.83;;
48205;SDS011;33995;48.202;16.260;2023-03-01T12:35:39;23.80;;;18.70;;
48205;SDS011;33995;48.202;16.260;2023-03-01T12:38:42;22.07;;;19.40;;
48205;SDS011;33995;48.202;16.260;2023-03-01T12:41:55;23.60;;;18.87;;
48205;SDS011;33995;48.202;16.260;2023-03-01T12:44:50;21.17;;;18.07;;
48205;SDS011;33995;48.202;16.260;2023-03-01T12:50:40;23.40;;;18.13;;
48205;SDS011;33995;48.202;16.260;2023-03-01T12:56:05;22.13;;;18.60;;
48205;SDS011;33995;48.202;16.260;2023-03-01T13:01:36;22.47;;;17.83;;
48205;SDS011;33995;48.202;16.260;2023-03-01T13:04:35;20.50;;;17.57;;
48205;SDS011;33995;48.202;16.260;2023-03-01T13:07:25;20.63;;;17.13;;
48205;SDS011;33995;48.202;16.260;2023-03-01T13:15:54;19.23;;;17.23;;
48205;SDS011;33995;48.202;16.260;2023-03-01T13:18:27;19.33;;;17.17;;
48205;SDS011;33995;48.202;16.260;2023-03-01T13:20:57;21.37;;;17.67;;
48205;SDS011;33995;48.202;16.260;2023-03-01T13:23:36;19.83;;;17.30;;
48205;SDS011;33995;48.202;16.260;2023-03-01T13:26:07;21.00;;;16.90;;
48205;SDS011;33995;48.202;16.260;2023-03-01T13:34:58;17.27;;;15.40;;
48205;SDS011;33995;48.202;16.260;2023-03-01T13:37:22;17.40;;;15.63;;
48205;SDS011;33995;48.202;16.260;2023-03-01T13:39:57;17.67;;;15.77;;
48205;SDS011;33995;48.202;16.260;2023-03-01T13:42:39;17.33;;;15.50;;
48205;SDS011;33995;48.202;16.260;2023-03-01T13:45:42;17.60;;;15.67;;
48205;SDS011;33995;48.202;16.260;2023-03-01T13:48:17;17.93;;;16.13;;
48205;SDS011;33995;48.202;16.260;2023-03-01T13:50:53;19.23;;;16.83;;
48205;SDS011;33995;48.202;16.260;2023-03-01T13:53:33;18.17;;;16.37;;
48205;SDS011;33995;48.202;16.260;2023-03-01T13:56:13;18.93;;;16.33;;
48205;SDS011;33995;48.202;16.260;2023-03-01T13:58:48;21.03;;;18.83;;
48205;SDS011;33995;48.202;16.260;2023-03-01T14:01:27;19.00;;;17.10;;
48205;SDS011;33995;48.202;16.260;2023-03-01T14:07:10;19.37;;;17.37;;
48205;SDS011;33995;48.202;16.260;2023-03-01T14:09:54;19.70;;;17.17;;
48205;SDS011;33995;48.202;16.260;2023-03-01T14:21:16;17.40;;;15.60;;
48205;SDS011;33995;48.202;16.260;2023-03-01T14:23:44;16.87;;;15.17;;
48205;SDS011;33995;48.202;16.260;2023-03-01T14:26:19;18.67;;;16.07;;
48205;SDS011;33995;48.202;16.260;2023-03-01T14:28:51;18.23;;;16.23;;
48205;SDS011;33995;48.202;16.260;2023-03-01T14:31:30;17.97;;;16.17;;
48205;SDS011;33995;48.202;16.260;2023-03-01T14:34:21;18.23;;;16.40;;
48205;SDS011;33995;48.202;16.260;2023-03-01T14:37:09;18.90;;;16.93;;
48205;SDS011;33995;48.202;16.260;2023-03-01T14:39:48;18.80;;;16.90;;
48205;SDS011;33995;48.202;16.260;2023-03-01T14:42:22;19.80;;;17.70;;
48205;SDS011;33995;48.202;16.260;2023-03-01T14:44:55;20.83;;;18.17;;
48205;SDS011;33995;48.202;16.260;2023-03-01T14:47:26;18.83;;;16.93;;
48205;SDS011;33995;48.202;16.260;2023-03-01T14:49:58;18.97;;;17.07;;
48205;SDS011;33995;48.202;16.260;2023-03-01T14:52:44;19.50;;;17.50;;
48205;SDS011;33995;48.202;16.260;2023-03-01T14:55:24;19.47;;;17.20;;
48205;SDS011;33995;48.202;16.260;2023-03-01T14:57:57;18.73;;;16.83;;
48205;SDS011;33995;48.202;16.260;2023-03-01T15:00:29;20.20;;;17.17;;
48205;SDS011;33995;48.202;16.260;2023-03-01T15:03:05;19.50;;;17.40;;
48205;SDS011;33995;48.202;16.260;2023-03-01T15:05:46;19.63;;;17.63;;
48205;SDS011;33995;48.202;16.260;2023-03-01T15:08:26;19.90;;;17.60;;
48205;SDS011;33995;48.202;16.260;2023-03-01T15:13:58;18.70;;;16.73;;
48205;SDS011;33995;48.202;16.260;2023-03-01T15:16:34;20.37;;;18.17;;
48205;SDS011;33995;48.202;16.260;2023-03-01T15:19:15;20.07;;;17.63;;
48205;SDS011;33995;48.202;16.260;2023-03-01T15:21:48;21.97;;;17.40;;
48205;SDS011;33995;48.202;16.260;2023-03-01T15:24:18;20.83;;;18.10;;
48205;SDS011;33995;48.202;16.260;2023-03-01T15:29:24;20.83;;;18.63;;
48205;SDS011;33995;48.202;16.260;2023-03-01T15:32:05;20.90;;;18.67;;
48205;SDS011;33995;48.202;16.260;2023-03-01T15:34:51;22.13;;;19.67;;
48205;SDS011;33995;48.202;16.260;2023-03-01T15:37:38;23.90;;;20.27;;
48205;SDS011;33995;48.202;16.260;2023-03-01T15:40:29;21.90;;;18.97;;
48205;SDS011;33995;48.202;16.260;2023-03-01T15:43:05;21.27;;;19.07;;
48205;SDS011;33995;48.202;16.260;2023-03-01T15:45:59;22.00;;;19.00;;
48205;SDS011;33995;48.202;16.260;2023-03-01T15:48:30;22.67;;;19.87;;
48205;SDS011;33995;48.202;16.260;2023-03-01T15:51:03;23.93;;;20.20;;
48205;SDS011;33995;48.202;16.260;2023-03-01T15:53:30;23.83;;;20.27;;
48205;SDS011;33995;48.202;16.260;2023-03-01T15:56:03;22.17;;;19.83;;
48205;SDS011;33995;48.202;16.260;2023-03-01T15:58:32;25.70;;;20.03;;
48205;SDS011;33995;48.202;16.260;2023-03-01T16:01:01;22.53;;;18.90;;
48205;SDS011;33995;48.202;16.260;2023-03-01T16:03:36;22.07;;;18.90;;
48205;SDS011;33995;48.202;16.260;2023-03-01T16:06:06;24.27;;;20.03;;
48205;SDS011;33995;48.202;16.260;2023-03-01T16:08:37;22.70;;;20.30;;
48205;SDS011;33995;48.202;16.260;2023-03-01T16:11:05;21.50;;;19.27;;
48205;SDS011;33995;48.202;16.260;2023-03-01T16:13:44;22.20;;;19.80;;
48205;SDS011;33995;48.202;16.260;2023-03-01T16:16:17;27.70;;;20.90;;
48205;SDS011;33995;48.202;16.260;2023-03-01T16:18:50;22.23;;;19.87;;
48205;SDS011;33995;48.202;16.260;2023-03-01T16:21:23;28.60;;;19.77;;
48205;SDS011;33995;48.202;16.260;2023-03-01T16:23:54;21.60;;;19.30;;
48205;SDS011;33995;48.202;16.260;2023-03-01T16:26:21;22.90;;;19.53;;
48205;SDS011;33995;48.202;16.260;2023-03-01T16:28:57;23.30;;;19.07;;
48205;SDS011;33995;48.202;16.260;2023-03-01T16:31:28;25.87;;;19.73;;
48205;SDS011;33995;48.202;16.260;2023-03-01T16:33:57;22.13;;;19.30;;
48205;SDS011;33995;48.202;16.260;2023-03-01T16:36:28;22.23;;;19.70;;
48205;SDS011;33995;48.202;16.260;2023-03-01T16:39:01;24.27;;;19.47;;